Josephine, Alabama
Current Conditions -  °F | °C
As of 11:15 AM on Saturday 25 Oct 2014 (Local Time) from KJKA Reporting Station
Clear Clear  
Wind Chill: 22°   Ceiling: Unl
Heat Index: 22°   Visibility: 10mi
Dew Point: 10°   Wind: 9mph
Humidity: 46%   Direction: 30°NNE
Pressure: 30.12"   Gusts: NA
Location:  30.4162°N, 87.5594°W
Report Text: KJKA 251615Z AUTO 03008KT 10SM CLR 22/10 A3012 RMK AO2 T02190098
Loading
Personal Weather Stations






























Interactive Weather Map
Tropical Storm Tracking
New forecast layout! Learn more

10-Day Weather Forecast

Advertisements
Track Severe Weather on mobile